»·PEaware :: N575TV KDTA-KHTH

N575TV :: KDTA-KHTH

FLIGHT INFORMATION

Flight Status: Arrived
Operator: Privately registered:
United States
More flights under this callsign
Pilot: Callum S. (24602)
Aircraft: DASSAULT AVIATION FALCON 50
(FA50)
More flights by this aircraft type
Origin: KDTA Delta Mun
United States
Destination: KHTH Hawthorne Mun
United States
More flights between these airports :: More routes between these airports
Route: DTA J84 MVA
File this flight plan on PilotEdge
Remarks:
Altitude:
(Current/Filed)
43,000ft
Speed:
(Current/Filed)
400kts
Departed: 19-Jan-20 01:20 PM
Arrived: 19-Jan-20 02:14 PM
Distance/Time
Traveled:
290nm/0:54
Distance/Time
To Go:
Arrived

Flight Plot

Page will automatically refresh every two minutes.

Flight plan parsing failed; only flown route is shown


Map Options




Map Legend


Flown Route
Filed Route
Departure Airport
Arrival Airport
Navaid (VOR, NDB)
Fix

Horizontal Profiles

Position Reports

Time Latitude Longitude Heading Altitude Ground
Speed
19-Jan-20 12:53 39.385697 -112.511371 45 4763ft 0kts
19-Jan-20 12:54 39.385697 -112.511371 45 4763ft 0kts
19-Jan-20 12:55 39.385697 -112.511371 45 4763ft 0kts
19-Jan-20 12:56 39.385697 -112.511371 45 4763ft 0kts
19-Jan-20 12:57 39.385697 -112.511371 45 4763ft 0kts
19-Jan-20 12:58 39.385697 -112.511371 45 4763ft 0kts
19-Jan-20 12:59 39.385697 -112.511371 45 4763ft 0kts
19-Jan-20 13:00 39.385697 -112.511371 45 4763ft 0kts
19-Jan-20 13:01 39.385697 -112.511371 45 4763ft 0kts
19-Jan-20 13:02 39.385697 -112.511371 45 4763ft 0kts
19-Jan-20 13:03 39.385697 -112.511371 45 4763ft 0kts
19-Jan-20 13:04 39.385698 -112.511370 45 4763ft 0kts
19-Jan-20 13:05 39.385698 -112.511370 45 4763ft 0kts
19-Jan-20 13:06 39.385791 -112.511248 45 4762ft 0kts
19-Jan-20 13:07 39.385793 -112.511246 45 4762ft 0kts
19-Jan-20 13:08 39.385794 -112.511244 45 4762ft 0kts
19-Jan-20 13:09 39.385796 -112.511242 45 4762ft 0kts
19-Jan-20 13:10 39.384403 -112.510878 135 4763ft 13kts
19-Jan-20 13:11 39.382676 -112.511228 220 4763ft 16kts
19-Jan-20 13:12 39.378996 -112.507493 135 4763ft 22kts
19-Jan-20 13:13 39.375688 -112.503183 108 4763ft 0kts
19-Jan-20 13:14 39.375687 -112.503180 108 4763ft 0kts
19-Jan-20 13:15 39.375686 -112.503177 108 4763ft 0kts
19-Jan-20 13:16 39.375685 -112.503174 108 4763ft 0kts
19-Jan-20 13:17 39.375685 -112.503171 108 4763ft 0kts
19-Jan-20 13:18 39.376638 -112.502258 0 4763ft 22kts
19-Jan-20 13:19 39.411419 -112.505086 332 6194ft 191kts
19-Jan-20 13:20 39.398117 -112.577601 199 10873ft 293kts
19-Jan-20 13:21 39.315161 -112.568607 206 16353ft 320kts
19-Jan-20 13:22 39.281330 -112.673896 266 20265ft 362kts
19-Jan-20 13:23 39.269129 -112.807066 264 24338ft 378kts
19-Jan-20 13:24 39.254140 -112.941872 265 27835ft 381kts
19-Jan-20 13:25 39.239333 -113.072688 266 31827ft 354kts
19-Jan-20 13:26 39.225381 -113.195119 267 34951ft 339kts
19-Jan-20 13:27 39.211579 -113.315746 267 37089ft 339kts
19-Jan-20 13:28 39.197634 -113.436021 266 38963ft 340kts
19-Jan-20 13:29 39.183488 -113.556742 266 40580ft 341kts
19-Jan-20 13:30 39.169179 -113.677650 265 41952ft 343kts
19-Jan-20 13:31 39.154586 -113.799810 264 43161ft 345kts
19-Jan-20 13:32 39.139421 -113.926008 264 43487ft 370kts
19-Jan-20 13:33 39.122894 -114.061944 263 43486ft 396kts
19-Jan-20 13:34 39.105401 -114.203764 263 43486ft 400kts
19-Jan-20 13:35 39.087926 -114.344104 263 43482ft 393kts
19-Jan-20 13:36 39.070606 -114.482021 263 43512ft 387kts
19-Jan-20 13:37 39.053288 -114.618793 263 43474ft 388kts
19-Jan-20 13:38 39.035782 -114.755559 263 43472ft 388kts
19-Jan-20 13:39 39.018113 -114.892276 263 43471ft 388kts
19-Jan-20 13:40 39.000217 -115.029447 263 43472ft 388kts
19-Jan-20 13:41 38.982265 -115.165712 263 43471ft 386kts
19-Jan-20 13:42 38.964130 -115.302168 263 43470ft 389kts
19-Jan-20 13:43 38.945695 -115.439585 262 43466ft 392kts
19-Jan-20 13:44 38.926932 -115.578113 262 43463ft 394kts
19-Jan-20 13:45 38.907940 -115.717156 262 43447ft 397kts
19-Jan-20 13:46 38.888657 -115.857249 262 43446ft 399kts
19-Jan-20 13:47 38.869107 -115.997653 262 43444ft 401kts
19-Jan-20 13:48 38.849247 -116.138954 262 43418ft 403kts
19-Jan-20 13:49 38.829168 -116.280471 262 43418ft 404kts
19-Jan-20 13:50 38.808891 -116.422102 262 43419ft 404kts
19-Jan-20 13:51 38.788819 -116.560731 262 41285ft 379kts
19-Jan-20 13:52 38.770013 -116.689753 262 38737ft 359kts
19-Jan-20 13:53 38.751393 -116.817073 262 36239ft 373kts
19-Jan-20 13:54 38.731906 -116.948750 261 33749ft 377kts
19-Jan-20 13:56 38.712250 -117.080319 261 31255ft 370kts
19-Jan-20 13:57 38.692986 -117.208424 260 28758ft 371kts
19-Jan-20 13:58 38.673135 -117.339459 260 26274ft 372kts
19-Jan-20 13:59 38.653588 -117.467297 260 23772ft 371kts
19-Jan-20 14:00 38.633838 -117.595580 259 21277ft 360kts
19-Jan-20 14:01 38.614455 -117.720509 258 18834ft 359kts
19-Jan-20 14:02 38.594930 -117.845428 258 16422ft 352kts
19-Jan-20 14:03 38.576015 -117.965656 257 13978ft 330kts
19-Jan-20 14:04 38.561572 -118.075931 261 11477ft 301kts
19-Jan-20 14:05 38.552693 -118.178193 261 9279ft 273kts
19-Jan-20 14:06 38.540137 -118.266202 258 8255ft 235kts
19-Jan-20 14:07 38.516873 -118.335268 234 7990ft 195kts
19-Jan-20 14:08 38.490303 -118.386359 234 7928ft 159kts
19-Jan-20 14:09 38.479656 -118.447124 264 7652ft 186kts
19-Jan-20 14:10 38.494452 -118.504674 295 6676ft 168kts
19-Jan-20 14:11 38.513260 -118.553040 297 5644ft 137kts
19-Jan-20 14:12 38.528629 -118.592957 296 4881ft 118kts
19-Jan-20 14:13 38.542348 -118.629005 296 4224ft 95kts
19-Jan-20 14:14 38.546310 -118.641250 116 4219ft 10kts

Navigation Log

Ident Type
Flight plan parsing failed, navigation log unavailable